Time;durP1;ratioP1;P1;durP2;ratioP2;P2;SDS_P1;SDS_P2;PMS_P1;PMS_P2;Temp;Humidity;BMP_temperature;BMP_pressure;BME280_temperature;BME280_humidity;BME280_pressure;Samples;Min_cycle;Max_cycle;Signal;HPM_P1;HPM_P2
2023/01/31 00:01:57;;;;;;;31.35;4.25;;;5.70;99.90;;;;;;5098175;27;20255;-76
2023/01/31 00:04:23;;;;;;;29.52;3.97;;;5.70;99.90;;;;;;5127051;27;20536;-76
2023/01/31 00:06:50;;;;;;;25.60;3.58;;;5.60;99.90;;;;;;5111702;28;20592;-75
2023/01/31 00:09:17;;;;;;;31.20;4.45;;;5.60;99.90;;;;;;5114842;27;20401;-76
2023/01/31 00:11:42;;;;;;;30.00;4.15;;;5.60;99.90;;;;;;5113100;28;20629;-76
2023/01/31 00:14:09;;;;;;;36.45;4.88;;;5.60;99.90;;;;;;5125954;27;20228;-76
2023/01/31 00:16:35;;;;;;;25.85;3.50;;;5.50;99.90;;;;;;5129199;28;20181;-75
2023/01/31 00:19:02;;;;;;;30.42;3.80;;;5.50;99.90;;;;;;5131105;28;20240;-76
2023/01/31 00:21:30;;;;;;;32.90;3.45;;;5.50;99.90;;;;;;5133153;27;20233;-76
2023/01/31 00:23:57;;;;;;;27.00;3.55;;;5.50;99.90;;;;;;5131687;27;20212;-76
2023/01/31 00:26:25;;;;;;;25.45;3.25;;;5.50;99.90;;;;;;5133466;27;20176;-78
2023/01/31 00:28:53;;;;;;;21.42;3.80;;;5.40;99.90;;;;;;5124275;28;20580;-76
2023/01/31 00:31:20;;;;;;;33.78;3.50;;;5.40;99.90;;;;;;5130170;28;20184;-77
2023/01/31 00:33:49;;;;;;;25.20;3.35;;;5.40;99.90;;;;;;5130389;27;20203;-76
2023/01/31 00:36:18;;;;;;;27.02;3.60;;;5.40;99.90;;;;;;5131302;28;20180;-76
2023/01/31 00:38:46;;;;;;;26.30;3.92;;;5.40;99.90;;;;;;5125941;27;20180;-76
2023/01/31 00:41:12;;;;;;;32.42;3.47;;;5.40;99.90;;;;;;5111161;28;20220;-77
2023/01/31 00:43:39;;;;;;;30.88;2.75;;;5.40;99.90;;;;;;5118451;28;20219;-75
2023/01/31 00:46:05;;;;;;;36.38;3.67;;;5.40;99.90;;;;;;5132265;28;20220;-75
2023/01/31 00:48:31;;;;;;;23.40;3.38;;;5.30;99.90;;;;;;5129147;28;20271;-76
2023/01/31 00:50:57;;;;;;;24.08;3.17;;;5.30;99.90;;;;;;5114942;28;20196;-76
2023/01/31 00:53:24;;;;;;;29.13;3.80;;;5.30;99.90;;;;;;5130078;28;20556;-76
2023/01/31 00:55:55;;;;;;;28.88;3.13;;;5.30;99.90;;;;;;5128956;28;20540;-77
2023/01/31 00:58:21;;;;;;;29.50;3.30;;;5.30;99.90;;;;;;5119208;28;20276;-76
2023/01/31 01:00:47;;;;;;;27.55;3.40;;;5.30;99.90;;;;;;5127772;28;20269;-77
2023/01/31 01:03:13;;;;;;;21.55;3.38;;;5.30;99.90;;;;;;5114814;27;20184;-79
2023/01/31 01:05:40;;;;;;;25.08;3.45;;;5.30;99.90;;;;;;5129774;27;20189;-78
2023/01/31 01:08:06;;;;;;;20.08;3.50;;;5.20;99.90;;;;;;5119041;27;20574;-79
2023/01/31 01:10:32;;;;;;;29.45;3.38;;;5.20;99.90;;;;;;5115956;27;20178;-78
2023/01/31 01:12:59;;;;;;;24.50;3.38;;;5.20;99.90;;;;;;5114961;27;20185;-80
2023/01/31 01:15:25;;;;;;;28.23;3.35;;;5.20;99.90;;;;;;5131538;27;20645;-76
2023/01/31 01:17:51;;;;;;;28.20;3.25;;;5.20;99.90;;;;;;5129957;27;20184;-76
2023/01/31 01:20:18;;;;;;;22.15;3.38;;;5.30;99.90;;;;;;5133540;27;20188;-78
2023/01/31 01:22:44;;;;;;;26.30;3.42;;;5.20;99.90;;;;;;5136499;27;20274;-76
2023/01/31 01:25:10;;;;;;;20.55;3.05;;;5.20;99.90;;;;;;5113427;28;20181;-75
2023/01/31 01:27:36;;;;;;;24.95;2.92;;;5.20;99.90;;;;;;5115733;27;20184;-78
2023/01/31 01:30:04;;;;;;;32.60;4.00;;;5.20;99.90;;;;;;5122797;27;20213;-77
2023/01/31 01:32:29;;;;;;;26.80;3.28;;;5.20;99.90;;;;;;5113291;27;20178;-75
2023/01/31 01:34:55;;;;;;;24.60;3.60;;;5.20;99.90;;;;;;5125098;27;20184;-75
2023/01/31 01:37:21;;;;;;;22.30;3.70;;;5.20;99.90;;;;;;5114515;28;20202;-76
2023/01/31 01:39:48;;;;;;;26.58;3.30;;;5.20;99.90;;;;;;5115956;27;20189;-76
2023/01/31 01:42:20;;;;;;;28.20;4.50;;;5.20;99.90;;;;;;5133926;27;20212;-76
2023/01/31 01:44:58;;;;;;;19.63;3.53;;;5.20;99.90;;;;;;5132830;27;20514;-76
2023/01/31 01:47:45;;;;;;;25.35;3.42;;;5.20;99.90;;;;;;5134697;27;20172;-77
2023/01/31 01:50:20;;;;;;;29.23;3.67;;;5.10;99.90;;;;;;5132901;27;20173;-76
2023/01/31 01:53:04;;;;;;;43.10;4.00;;;5.10;99.90;;;;;;5135027;27;20164;-76
2023/01/31 01:55:37;;;;;;;29.58;3.42;;;5.20;99.90;;;;;;5134804;27;20222;-76
2023/01/31 01:58:15;;;;;;;18.10;2.47;;;5.20;99.90;;;;;;5133786;27;20188;-77
2023/01/31 02:00:42;;;;;;;29.52;2.78;;;5.20;99.90;;;;;;5115326;28;20514;-79
2023/01/31 02:03:08;;;;;;;21.80;3.22;;;5.20;99.90;;;;;;5114341;27;20189;-77
2023/01/31 02:05:44;;;;;;;26.77;3.17;;;5.20;99.90;;;;;;5125790;27;20177;-77
2023/01/31 02:08:11;;;;;;;25.23;3.30;;;5.10;99.90;;;;;;5116409;27;20562;-76
2023/01/31 02:10:58;;;;;;;20.90;2.78;;;5.20;99.90;;;;;;5127524;27;20185;-76
2023/01/31 02:13:24;;;;;;;22.45;3.05;;;5.20;99.90;;;;;;5122237;27;20234;-77
2023/01/31 02:15:50;;;;;;;21.00;3.30;;;5.20;99.90;;;;;;5113572;28;20565;-76
2023/01/31 02:18:19;;;;;;;24.88;3.70;;;5.20;99.90;;;;;;5114453;27;20780;-76
2023/01/31 02:21:00;;;;;;;26.17;3.78;;;5.30;99.90;;;;;;5113351;28;20204;-77
2023/01/31 02:23:47;;;;;;;25.98;3.63;;;5.30;99.90;;;;;;5111450;27;20535;-76
2023/01/31 02:26:44;;;;;;;18.45;2.92;;;5.30;99.90;;;;;;5113503;28;20314;-76
2023/01/31 02:29:29;;;;;;;27.67;3.45;;;5.30;99.90;;;;;;5123076;27;20180;-77
2023/01/31 02:32:53;;;;;;;23.25;3.03;;;5.30;99.90;;;;;;5132770;27;20251;-76
2023/01/31 02:35:48;;;;;;;25.23;2.72;;;5.30;99.90;;;;;;5050025;28;20183;-77
2023/01/31 02:38:20;;;;;;;16.73;2.50;;;5.40;99.90;;;;;;5050131;28;20812;-77
2023/01/31 02:41:10;;;;;;;17.40;2.42;;;5.40;99.90;;;;;;5100728;28;20625;-76
2023/01/31 02:46:36;;;;;;;21.33;3.08;;;5.40;99.90;;;;;;5123882;27;20176;-76
2023/01/31 02:49:06;;;;;;;24.92;3.13;;;5.40;99.90;;;;;;5130068;27;20181;-76
2023/01/31 02:51:40;;;;;;;25.10;3.10;;;5.50;99.90;;;;;;5121243;27;20260;-77
2023/01/31 02:54:22;;;;;;;23.75;3.13;;;5.50;99.90;;;;;;5122775;27;20184;-76
2023/01/31 02:56:51;;;;;;;20.88;3.13;;;5.50;99.90;;;;;;5129703;27;20263;-76
2023/01/31 02:59:26;;;;;;;19.15;3.35;;;5.60;99.90;;;;;;5127934;27;20187;-76
2023/01/31 03:01:58;;;;;;;23.23;2.75;;;5.60;99.90;;;;;;5132609;27;20200;-77
2023/01/31 03:04:29;;;;;;;29.10;3.00;;;5.60;99.90;;;;;;5130098;27;20243;-79
2023/01/31 03:07:00;;;;;;;22.00;3.10;;;5.60;99.90;;;;;;5133577;27;20195;-77
2023/01/31 03:09:49;;;;;;;23.58;2.58;;;5.60;99.90;;;;;;5124800;27;20578;-76
2023/01/31 03:12:29;;;;;;;18.75;2.90;;;5.60;99.90;;;;;;5132054;27;20632;-76
2023/01/31 03:14:59;;;;;;;19.67;3.15;;;5.60;99.90;;;;;;5117275;27;20319;-76
2023/01/31 03:17:41;;;;;;;11.57;2.33;;;5.60;99.90;;;;;;5132312;27;20647;-76
2023/01/31 03:20:23;;;;;;;22.85;2.88;;;5.60;99.90;;;;;;5120941;27;20181;-77
2023/01/31 03:22:57;;;;;;;21.65;3.03;;;5.60;99.90;;;;;;5112527;28;20204;-76
2023/01/31 03:25:26;;;;;;;22.10;2.70;;;5.60;99.90;;;;;;5133734;27;20203;-76
2023/01/31 03:27:59;;;;;;;21.92;2.63;;;5.60;99.90;;;;;;5132556;27;20277;-80
2023/01/31 03:30:33;;;;;;;20.85;2.58;;;5.60;99.90;;;;;;5114671;27;20195;-77
2023/01/31 03:33:07;;;;;;;25.23;2.78;;;5.60;99.90;;;;;;5131062;27;20238;-78
2023/01/31 03:35:37;;;;;;;15.40;2.40;;;5.60;99.90;;;;;;5132763;27;20176;-77
2023/01/31 03:38:15;;;;;;;17.70;2.72;;;5.60;99.90;;;;;;5114120;27;20619;-80
2023/01/31 03:40:48;;;;;;;20.67;3.15;;;5.60;99.90;;;;;;5120566;27;20196;-77
2023/01/31 03:43:27;;;;;;;18.48;2.97;;;5.60;99.90;;;;;;5133466;27;20222;-77
2023/01/31 03:46:06;;;;;;;21.35;3.10;;;5.60;99.90;;;;;;5119157;27;20230;-77
2023/01/31 03:48:36;;;;;;;23.33;3.35;;;5.60;99.90;;;;;;5127810;27;20169;-76
2023/01/31 03:51:08;;;;;;;19.10;3.38;;;5.60;99.90;;;;;;5130275;27;20180;-78
2023/01/31 03:54:00;;;;;;;20.85;2.58;;;5.60;99.90;;;;;;5131611;27;20226;-77
2023/01/31 03:56:36;;;;;;;14.50;2.97;;;5.70;99.90;;;;;;5131817;27;20165;-77
2023/01/31 03:59:13;;;;;;;18.45;3.17;;;5.60;99.90;;;;;;5131267;27;20187;-77
2023/01/31 04:01:44;;;;;;;21.65;2.90;;;5.70;99.90;;;;;;5132977;27;20298;-76
2023/01/31 04:04:14;;;;;;;27.65;3.20;;;5.70;99.90;;;;;;5130307;27;20180;-77
2023/01/31 04:06:41;;;;;;;19.13;3.22;;;5.70;99.90;;;;;;5124113;27;20275;-77
2023/01/31 04:09:08;;;;;;;30.55;3.45;;;5.70;99.90;;;;;;5114221;27;20184;-77
2023/01/31 04:11:41;;;;;;;21.17;3.20;;;5.80;99.90;;;;;;5111109;28;20192;-77
2023/01/31 04:14:08;;;;;;;21.67;3.00;;;5.80;99.90;;;;;;5122246;27;20292;-77
2023/01/31 04:16:34;;;;;;;29.60;3.10;;;5.80;99.90;;;;;;5130923;27;20215;-76
2023/01/31 04:19:00;;;;;;;20.92;3.42;;;5.80;99.90;;;;;;5132460;28;20216;-77
2023/01/31 04:21:26;;;;;;;21.00;3.65;;;5.80;99.90;;;;;;5132747;28;20204;-80
2023/01/31 04:23:51;;;;;;;27.17;3.05;;;5.80;99.90;;;;;;5125422;28;20596;-77
2023/01/31 04:26:17;;;;;;;26.02;3.17;;;5.90;99.90;;;;;;5111576;28;20713;-79
2023/01/31 04:28:43;;;;;;;31.10;3.47;;;5.80;99.90;;;;;;5114342;28;20183;-76
2023/01/31 04:31:09;;;;;;;26.02;4.03;;;5.90;99.90;;;;;;5133424;27;20635;-77
2023/01/31 04:33:34;;;;;;;24.50;3.60;;;5.90;99.90;;;;;;5123081;27;20204;-77
2023/01/31 04:36:00;;;;;;;26.00;3.75;;;5.90;99.90;;;;;;5131140;28;20184;-77
2023/01/31 04:38:26;;;;;;;24.13;3.78;;;5.90;99.90;;;;;;5123646;27;20878;-77
2023/01/31 04:40:52;;;;;;;31.38;4.13;;;6.00;99.90;;;;;;5136048;27;20221;-77
2023/01/31 04:43:18;;;;;;;26.77;3.88;;;6.00;99.90;;;;;;5125068;27;20184;-77
2023/01/31 04:45:43;;;;;;;30.20;3.90;;;6.00;99.90;;;;;;5128037;27;20196;-77
2023/01/31 04:48:09;;;;;;;25.30;3.97;;;6.00;99.90;;;;;;5132380;27;20652;-76
2023/01/31 04:50:35;;;;;;;25.05;4.22;;;6.00;99.90;;;;;;5116556;27;20180;-77
2023/01/31 04:53:01;;;;;;;24.70;3.65;;;6.10;99.90;;;;;;5123002;27;20192;-77
2023/01/31 04:55:27;;;;;;;29.02;4.78;;;6.10;99.90;;;;;;5135264;27;20226;-76
2023/01/31 04:57:53;;;;;;;29.15;4.70;;;6.00;99.90;;;;;;5124315;27;20189;-78
2023/01/31 05:00:19;;;;;;;32.83;4.63;;;6.10;99.90;;;;;;5135661;27;20596;-77
2023/01/31 05:02:45;;;;;;;34.83;4.32;;;6.10;99.90;;;;;;5135727;27;20693;-77
2023/01/31 05:05:14;;;;;;;25.23;4.55;;;6.20;99.90;;;;;;5131186;27;20180;-77
2023/01/31 05:07:40;;;;;;;27.33;3.97;;;6.20;99.90;;;;;;5115945;27;20181;-86
2023/01/31 05:10:06;;;;;;;25.88;4.13;;;6.30;99.90;;;;;;5096911;28;20188;-75
2023/01/31 05:12:32;;;;;;;28.70;5.07;;;6.20;99.90;;;;;;5136587;27;20185;-76
2023/01/31 05:14:57;;;;;;;24.83;4.30;;;6.30;99.90;;;;;;5133722;27;20228;-76
2023/01/31 05:17:25;;;;;;;30.48;4.15;;;6.30;99.90;;;;;;5127515;27;20192;-76
2023/01/31 05:19:51;;;;;;;35.47;5.40;;;6.30;99.90;;;;;;5130233;27;20188;-76
2023/01/31 05:22:21;;;;;;;33.00;4.30;;;6.30;99.90;;;;;;5135496;27;20329;-76
2023/01/31 05:24:48;;;;;;;27.35;4.18;;;6.40;99.90;;;;;;5121022;27;20190;-80
2023/01/31 05:27:14;;;;;;;27.73;5.03;;;6.40;99.90;;;;;;5136470;27;20185;-76
2023/01/31 05:29:41;;;;;;;33.15;4.95;;;6.30;99.90;;;;;;5135239;27;20184;-80
2023/01/31 05:32:08;;;;;;;39.85;4.95;;;6.40;99.90;;;;;;5107155;27;20192;-76
2023/01/31 05:34:34;;;;;;;33.30;4.82;;;6.40;99.90;;;;;;5122753;27;20559;-76
2023/01/31 05:37:01;;;;;;;30.65;5.10;;;6.40;99.90;;;;;;5128694;27;20185;-76
2023/01/31 05:39:27;;;;;;;28.95;4.53;;;6.40;99.90;;;;;;5127520;27;20181;-77
2023/01/31 05:41:53;;;;;;;41.00;4.93;;;6.40;99.90;;;;;;5119120;27;20255;-76
2023/01/31 05:44:19;;;;;;;28.50;4.90;;;6.50;99.90;;;;;;5116792;27;20217;-76
2023/01/31 05:46:45;;;;;;;27.83;4.80;;;6.40;99.90;;;;;;5115432;27;20209;-76
2023/01/31 05:49:12;;;;;;;33.08;4.38;;;6.50;99.90;;;;;;5114766;27;20219;-76
2023/01/31 05:51:39;;;;;;;23.88;3.92;;;6.40;99.90;;;;;;5114393;28;20224;-76
2023/01/31 05:54:05;;;;;;;32.30;4.80;;;6.50;99.90;;;;;;5124838;27;20176;-76
2023/01/31 05:56:31;;;;;;;39.45;5.82;;;6.40;99.90;;;;;;5135052;27;20544;-76
2023/01/31 05:58:57;;;;;;;34.65;4.53;;;6.50;99.90;;;;;;5134211;27;20223;-76
2023/01/31 06:01:25;;;;;;;35.80;5.03;;;6.50;99.90;;;;;;5135186;27;20707;-76
2023/01/31 06:03:50;;;;;;;29.33;4.55;;;6.50;99.90;;;;;;5135190;27;20180;-79
2023/01/31 06:06:17;;;;;;;35.60;4.43;;;6.50;99.90;;;;;;5134748;27;20626;-78
2023/01/31 06:08:43;;;;;;;30.98;4.90;;;6.50;99.90;;;;;;5115457;27;20173;-76
2023/01/31 06:11:10;;;;;;;33.45;4.78;;;6.50;99.90;;;;;;5126695;27;20180;-78
2023/01/31 06:13:37;;;;;;;31.02;4.68;;;6.50;99.90;;;;;;5126004;27;20173;-77
2023/01/31 06:16:03;;;;;;;29.05;4.90;;;6.50;99.90;;;;;;5134259;27;20209;-79
2023/01/31 06:18:29;;;;;;;27.48;4.35;;;6.60;99.90;;;;;;5132297;27;20173;-77
2023/01/31 06:20:55;;;;;;;32.92;4.80;;;6.60;99.90;;;;;;5133159;27;20204;-78
2023/01/31 06:23:20;;;;;;;33.45;4.60;;;6.50;99.90;;;;;;5132865;27;20176;-78
2023/01/31 06:25:50;;;;;;;30.85;4.68;;;6.50;99.90;;;;;;5135227;27;20271;-77
2023/01/31 06:28:17;;;;;;;24.33;4.95;;;6.60;99.90;;;;;;5133302;27;20221;-77
2023/01/31 06:30:42;;;;;;;35.22;6.07;;;6.60;99.90;;;;;;5132817;27;20209;-78
2023/01/31 06:33:08;;;;;;;24.42;4.65;;;6.60;99.90;;;;;;5119274;27;20280;-78
2023/01/31 06:35:35;;;;;;;36.45;5.93;;;6.60;99.90;;;;;;5127781;27;20184;-78
2023/01/31 06:38:01;;;;;;;32.67;5.35;;;6.60;99.90;;;;;;5134208;27;20181;-79
2023/01/31 06:40:27;;;;;;;22.60;4.63;;;6.60;99.90;;;;;;5124696;27;20191;-77
2023/01/31 06:42:52;;;;;;;25.05;4.38;;;6.60;99.90;;;;;;5135391;27;20295;-78
2023/01/31 06:45:18;;;;;;;32.40;5.38;;;6.60;99.90;;;;;;5114770;27;20658;-77
2023/01/31 06:47:44;;;;;;;33.70;5.50;;;6.60;99.90;;;;;;5134288;27;20172;-79
2023/01/31 06:50:11;;;;;;;29.92;5.18;;;6.60;99.90;;;;;;5129283;27;20241;-77
2023/01/31 06:52:38;;;;;;;24.83;4.82;;;6.60;99.90;;;;;;5102117;28;20220;-77
2023/01/31 06:55:04;;;;;;;27.00;4.30;;;6.60;99.90;;;;;;5130764;27;20184;-77
2023/01/31 06:57:30;;;;;;;33.50;4.50;;;6.60;99.90;;;;;;5112882;28;20551;-76
2023/01/31 06:59:56;;;;;;;27.17;4.45;;;6.70;99.90;;;;;;5104640;27;20211;-80
2023/01/31 07:02:22;;;;;;;36.65;4.72;;;6.70;99.90;;;;;;5112035;27;20209;-77
2023/01/31 07:04:47;;;;;;;33.20;5.15;;;6.70;99.90;;;;;;5108582;27;20193;-77
2023/01/31 07:07:13;;;;;;;31.98;5.32;;;6.70;99.90;;;;;;5113918;28;20528;-77
2023/01/31 07:09:39;;;;;;;23.77;4.32;;;6.70;99.90;;;;;;5113248;27;20315;-77
2023/01/31 07:12:05;;;;;;;24.85;4.05;;;6.70;99.90;;;;;;5113101;27;20188;-78
2023/01/31 07:14:31;;;;;;;32.15;4.40;;;6.60;99.90;;;;;;5118404;27;20659;-77
2023/01/31 07:16:57;;;;;;;30.35;4.40;;;6.70;99.90;;;;;;5118760;27;20363;-77
2023/01/31 07:19:22;;;;;;;35.88;4.90;;;6.70;99.90;;;;;;5132160;27;20177;-77
2023/01/31 07:21:48;;;;;;;24.48;4.53;;;6.70;99.90;;;;;;5125026;27;20350;-77
2023/01/31 07:24:14;;;;;;;22.10;4.00;;;6.70;99.90;;;;;;5124016;27;20233;-77
2023/01/31 07:26:40;;;;;;;33.75;4.78;;;6.70;99.90;;;;;;5134135;27;20576;-78
2023/01/31 07:29:06;;;;;;;29.13;5.20;;;6.70;99.90;;;;;;5131299;27;20265;-77
2023/01/31 07:31:32;;;;;;;21.52;4.93;;;6.80;99.90;;;;;;5132325;27;20229;-77
2023/01/31 07:33:58;;;;;;;26.05;5.25;;;6.70;99.90;;;;;;5131879;27;20283;-78
2023/01/31 07:36:25;;;;;;;26.63;5.88;;;6.80;99.90;;;;;;5133849;27;20183;-77
2023/01/31 07:38:56;;;;;;;28.13;4.78;;;6.80;99.90;;;;;;5125316;27;20180;-77
2023/01/31 07:41:23;;;;;;;24.10;4.38;;;6.70;99.90;;;;;;5132377;27;20208;-77
2023/01/31 07:43:49;;;;;;;22.77;3.78;;;6.80;99.90;;;;;;5119988;27;20199;-77
2023/01/31 07:46:15;;;;;;;28.40;5.75;;;6.70;99.90;;;;;;5114964;27;20633;-79
2023/01/31 07:48:40;;;;;;;23.90;4.38;;;6.80;99.90;;;;;;5117914;27;20616;-76
2023/01/31 07:51:07;;;;;;;28.48;5.05;;;6.80;99.90;;;;;;5133567;27;20180;-81
2023/01/31 07:53:35;;;;;;;23.45;3.83;;;6.80;99.90;;;;;;5131588;27;20704;-76
2023/01/31 07:56:20;;;;;;;22.30;4.35;;;6.90;99.90;;;;;;5130981;27;20604;-77
2023/01/31 07:58:47;;;;;;;18.90;4.07;;;6.80;99.90;;;;;;5106453;27;20186;-76
2023/01/31 08:04:01;;;;;;;24.63;3.72;;;6.80;99.90;;;;;;5128006;27;20188;-78
2023/01/31 08:06:29;;;;;;;22.83;3.30;;;6.90;99.90;;;;;;5132403;27;20180;-78
2023/01/31 08:08:56;;;;;;;21.55;3.70;;;6.90;99.90;;;;;;5132028;27;20637;-77
2023/01/31 08:11:22;;;;;;;21.30;3.90;;;6.90;99.90;;;;;;5128882;27;20548;-77
2023/01/31 08:13:48;;;;;;;19.17;3.28;;;6.90;99.90;;;;;;5123123;27;20180;-78
2023/01/31 08:16:14;;;;;;;17.30;3.15;;;6.90;99.90;;;;;;5124191;27;20236;-81
2023/01/31 08:18:40;;;;;;;23.05;3.80;;;6.90;99.90;;;;;;5116226;27;20181;-77
2023/01/31 08:21:07;;;;;;;18.33;3.22;;;6.90;99.90;;;;;;5122223;28;20212;-77
2023/01/31 08:23:34;;;;;;;21.30;2.95;;;7.00;99.90;;;;;;5121740;28;20682;-77
2023/01/31 08:26:05;;;;;;;22.60;3.70;;;7.00;99.90;;;;;;5132675;27;20226;-76
2023/01/31 08:28:31;;;;;;;18.42;3.65;;;7.00;99.90;;;;;;5127119;27;20196;-76
2023/01/31 08:30:57;;;;;;;26.67;3.60;;;7.00;99.90;;;;;;5122889;28;20196;-81
2023/01/31 08:33:23;;;;;;;19.23;3.58;;;7.00;99.90;;;;;;5129907;27;20188;-78
2023/01/31 08:35:49;;;;;;;19.15;3.15;;;7.00;99.90;;;;;;5112586;28;20185;-76
2023/01/31 08:38:16;;;;;;;22.88;3.80;;;7.00;99.90;;;;;;5128173;28;20187;-77
2023/01/31 08:40:42;;;;;;;19.52;3.13;;;7.00;99.90;;;;;;5117897;27;20188;-76
2023/01/31 08:43:08;;;;;;;22.30;3.83;;;7.10;99.90;;;;;;5115546;27;20226;-77
2023/01/31 08:45:35;;;;;;;18.58;2.85;;;7.10;99.90;;;;;;5113095;27;20173;-76
2023/01/31 08:48:01;;;;;;;25.60;3.65;;;7.10;99.90;;;;;;5113699;28;20185;-82
2023/01/31 08:50:28;;;;;;;21.85;3.50;;;7.10;99.90;;;;;;5117019;27;20176;-77
2023/01/31 08:53:00;;;;;;;24.15;3.28;;;7.10;99.90;;;;;;5110751;28;20250;-81
2023/01/31 08:55:27;;;;;;;15.98;2.90;;;7.10;99.90;;;;;;5130676;28;20858;-78
2023/01/31 08:57:53;;;;;;;19.52;3.38;;;7.20;99.90;;;;;;5133398;27;20632;-77
2023/01/31 09:00:20;;;;;;;23.75;4.13;;;7.20;99.90;;;;;;5113148;28;20181;-77
2023/01/31 09:02:59;;;;;;;17.25;3.53;;;7.20;99.90;;;;;;5115420;28;20213;-79
2023/01/31 09:05:27;;;;;;;19.90;3.70;;;7.20;99.90;;;;;;5123000;28;20185;-79
2023/01/31 09:07:53;;;;;;;25.08;4.13;;;7.20;99.90;;;;;;5111772;28;20176;-77
2023/01/31 09:10:20;;;;;;;22.42;3.92;;;7.30;99.90;;;;;;5132452;27;20271;-78
2023/01/31 09:12:46;;;;;;;31.95;6.68;;;7.30;99.90;;;;;;5113391;28;20196;-78
2023/01/31 09:15:13;;;;;;;21.23;3.67;;;7.30;99.90;;;;;;5129875;28;20221;-77
2023/01/31 09:17:39;;;;;;;14.38;3.42;;;7.40;99.90;;;;;;5121438;27;20193;-78
2023/01/31 09:20:08;;;;;;;19.58;3.47;;;7.40;99.90;;;;;;5120068;28;20173;-77
2023/01/31 09:22:34;;;;;;;25.92;4.05;;;7.40;99.90;;;;;;5111043;28;20668;-78
2023/01/31 09:25:00;;;;;;;19.42;3.70;;;7.40;99.90;;;;;;5128802;27;20206;-77
2023/01/31 09:27:27;;;;;;;19.35;3.67;;;7.40;99.90;;;;;;5136539;27;20173;-77
2023/01/31 09:29:53;;;;;;;22.27;3.58;;;7.40;99.90;;;;;;5135960;27;20628;-75
2023/01/31 09:32:20;;;;;;;24.65;3.45;;;7.40;99.90;;;;;;5121138;27;20177;-76
2023/01/31 09:34:47;;;;;;;21.98;3.42;;;7.40;99.90;;;;;;5135123;27;20181;-76
2023/01/31 09:37:14;;;;;;;22.80;3.75;;;7.40;99.90;;;;;;5116625;27;20184;-77
2023/01/31 09:39:40;;;;;;;21.48;4.32;;;7.50;99.90;;;;;;5117290;27;20238;-78
2023/01/31 09:42:27;;;;;;;29.60;3.95;;;7.50;99.90;;;;;;5115047;27;20217;-84
2023/01/31 09:45:11;;;;;;;23.63;4.03;;;7.50;99.90;;;;;;5129044;27;20173;-77
2023/01/31 09:47:41;;;;;;;20.55;2.78;;;7.50;99.90;;;;;;5122390;27;20204;-78
2023/01/31 09:50:21;;;;;;;16.63;3.05;;;7.50;99.90;;;;;;5115622;27;20207;-80
2023/01/31 09:52:50;;;;;;;24.17;3.85;;;7.50;99.90;;;;;;5115576;27;20212;-81
2023/01/31 09:55:22;;;;;;;20.20;3.40;;;7.50;99.90;;;;;;5121874;27;20181;-78
2023/01/31 09:58:03;;;;;;;18.67;3.83;;;7.50;99.90;;;;;;5133197;27;20620;-77
2023/01/31 10:00:38;;;;;;;30.85;4.15;;;7.50;99.90;;;;;;5132043;27;20176;-76
2023/01/31 10:03:31;;;;;;;31.02;4.18;;;7.50;99.90;;;;;;5115351;27;20212;-77
2023/01/31 10:06:20;;;;;;;24.05;3.75;;;7.60;99.90;;;;;;5127251;27;20276;-78
2023/01/31 10:08:55;;;;;;;29.40;4.07;;;7.60;99.90;;;;;;5128944;27;20638;-77
2023/01/31 10:11:29;;;;;;;18.75;3.95;;;7.60;99.90;;;;;;5133707;27;20184;-78
2023/01/31 10:14:24;;;;;;;18.33;3.80;;;7.60;99.90;;;;;;5128749;27;20184;-76
2023/01/31 10:17:14;;;;;;;21.48;3.58;;;7.60;99.90;;;;;;5117669;27;20200;-75
2023/01/31 10:20:06;;;;;;;22.05;3.92;;;7.60;99.90;;;;;;5127610;27;20188;-76
2023/01/31 10:22:46;;;;;;;23.05;3.83;;;7.60;99.90;;;;;;5131873;27;20569;-76
2023/01/31 10:25:52;;;;;;;25.13;4.10;;;7.70;99.90;;;;;;5133550;27;20221;-75
2023/01/31 10:28:24;;;;;;;25.27;3.90;;;7.70;99.90;;;;;;5125374;27;20195;-75
2023/01/31 10:31:09;;;;;;;19.95;3.60;;;7.70;99.90;;;;;;5134211;27;20183;-77
2023/01/31 10:33:41;;;;;;;15.30;3.10;;;7.70;99.90;;;;;;5132816;27;20271;-80
2023/01/31 10:36:27;;;;;;;24.23;3.78;;;7.70;99.90;;;;;;5133845;27;20173;-75
2023/01/31 10:38:59;;;;;;;16.80;3.67;;;7.70;99.90;;;;;;5114509;27;20174;-75
2023/01/31 10:41:42;;;;;;;22.83;4.03;;;7.70;99.90;;;;;;5114364;28;20292;-76
2023/01/31 10:44:37;;;;;;;26.73;3.92;;;7.70;99.90;;;;;;5118159;27;20200;-76
2023/01/31 10:47:11;;;;;;;23.02;3.90;;;7.70;99.90;;;;;;5132042;27;20176;-77
2023/01/31 10:49:37;;;;;;;14.32;3.05;;;7.70;99.90;;;;;;5120252;27;20187;-76
2023/01/31 10:52:12;;;;;;;22.10;3.75;;;7.60;99.90;;;;;;5113945;28;20177;-76
2023/01/31 10:54:49;;;;;;;18.45;3.60;;;7.70;99.90;;;;;;5128823;27;20674;-76
2023/01/31 10:57:17;;;;;;;20.65;3.75;;;7.70;99.90;;;;;;5133168;27;20168;-76
2023/01/31 10:59:46;;;;;;;21.13;3.70;;;7.70;99.90;;;;;;5133721;27;20180;-75
2023/01/31 11:02:23;;;;;;;19.63;4.20;;;7.70;99.90;;;;;;5133085;27;20224;-75
2023/01/31 11:04:51;;;;;;;23.77;4.15;;;7.70;99.90;;;;;;5127415;27;20181;-76
2023/01/31 11:07:18;;;;;;;23.85;4.28;;;7.70;99.90;;;;;;5112853;28;20181;-76
2023/01/31 11:09:53;;;;;;;20.45;4.28;;;7.70;99.90;;;;;;5128340;27;20195;-75
2023/01/31 11:12:50;;;;;;;16.70;3.78;;;7.80;99.90;;;;;;5134478;27;20180;-76
2023/01/31 11:15:21;;;;;;;19.90;3.85;;;7.80;99.90;;;;;;5131789;27;20224;-74
2023/01/31 11:17:47;;;;;;;25.83;4.10;;;7.80;99.90;;;;;;5125621;27;20597;-76
2023/01/31 11:20:48;;;;;;;23.05;4.25;;;7.80;99.90;;;;;;5131724;27;20191;-76
2023/01/31 11:23:20;;;;;;;17.38;3.63;;;7.80;99.90;;;;;;5069731;28;20225;-75
2023/01/31 11:25:49;;;;;;;23.00;4.85;;;7.80;99.90;;;;;;5103317;28;20246;-75
2023/01/31 11:28:20;;;;;;;28.33;4.18;;;7.80;99.90;;;;;;5114655;27;20188;-75
2023/01/31 11:30:49;;;;;;;23.55;4.10;;;7.80;99.90;;;;;;5132969;27;20176;-75
2023/01/31 11:33:43;;;;;;;25.65;4.78;;;7.80;99.90;;;;;;5122027;27;20187;-76
2023/01/31 11:36:12;;;;;;;22.17;3.80;;;7.80;99.90;;;;;;5132091;27;20193;-75
2023/01/31 11:38:38;;;;;;;29.55;3.80;;;7.90;99.90;;;;;;5127993;27;20189;-75
2023/01/31 11:41:25;;;;;;;25.50;3.95;;;7.90;99.90;;;;;;5113766;28;20181;-76
2023/01/31 11:44:05;;;;;;;23.92;3.65;;;7.90;99.90;;;;;;5111792;27;20224;-76
2023/01/31 11:46:55;;;;;;;23.70;4.47;;;7.90;99.90;;;;;;5114056;28;20267;-76
2023/01/31 11:49:49;;;;;;;26.38;4.07;;;8.00;99.90;;;;;;5123409;27;20192;-75
2023/01/31 11:52:20;;;;;;;25.48;4.20;;;8.00;99.90;;;;;;5132855;27;20266;-75
2023/01/31 11:54:51;;;;;;;26.98;4.68;;;8.00;99.90;;;;;;5129453;27;20192;-75
2023/01/31 11:57:22;;;;;;;26.92;4.15;;;8.00;99.90;;;;;;5114642;27;20655;-75
2023/01/31 11:59:50;;;;;;;24.67;4.13;;;8.10;99.90;;;;;;5128132;27;20644;-76
2023/01/31 12:02:29;;;;;;;28.30;4.65;;;8.10;99.90;;;;;;5131321;27;20285;-76
2023/01/31 12:04:55;;;;;;;19.42;4.00;;;8.10;99.90;;;;;;5126228;27;20237;-76
2023/01/31 12:07:30;;;;;;;25.15;4.25;;;8.20;99.90;;;;;;5124397;27;20176;-74
2023/01/31 12:09:56;;;;;;;23.85;4.05;;;8.20;99.90;;;;;;5116102;27;20629;-75
2023/01/31 12:12:30;;;;;;;29.35;4.25;;;8.20;99.90;;;;;;5121390;27;20202;-75
2023/01/31 12:15:01;;;;;;;28.67;4.53;;;8.30;99.90;;;;;;5115404;27;20777;-75
2023/01/31 12:17:30;;;;;;;29.77;4.60;;;8.30;99.90;;;;;;5113319;28;20197;-75
2023/01/31 12:20:18;;;;;;;26.85;4.43;;;8.40;99.90;;;;;;5126218;27;20281;-76
2023/01/31 12:22:46;;;;;;;23.95;4.57;;;8.40;99.90;;;;;;5121297;28;20235;-75
2023/01/31 12:25:27;;;;;;;29.00;4.45;;;8.50;99.90;;;;;;5116693;28;20243;-79
2023/01/31 12:28:05;;;;;;;30.33;4.22;;;8.50;99.90;;;;;;5126901;27;20247;-81
2023/01/31 12:30:38;;;;;;;30.40;4.30;;;8.50;99.90;;;;;;5094235;28;20173;-75
2023/01/31 12:33:19;;;;;;;22.83;3.90;;;8.60;99.90;;;;;;5117980;28;20184;-75
2023/01/31 12:35:54;;;;;;;17.38;3.53;;;8.60;99.90;;;;;;5118810;27;20236;-75
2023/01/31 12:38:50;;;;;;;17.98;3.55;;;8.70;99.90;;;;;;5129110;28;20634;-75
2023/01/31 12:41:40;;;;;;;24.40;3.40;;;8.70;99.90;;;;;;5123305;28;20235;-75
2023/01/31 12:44:11;;;;;;;19.33;3.55;;;8.80;99.90;;;;;;5128115;27;20207;-75
2023/01/31 12:47:02;;;;;;;23.15;3.80;;;8.80;99.90;;;;;;5128072;27;20221;-74
2023/01/31 12:49:45;;;;;;;29.38;3.88;;;8.80;99.90;;;;;;5114337;28;20205;-75
2023/01/31 12:53:03;;;;;;;21.80;3.75;;;8.80;99.90;;;;;;5128839;28;20192;-75
2023/01/31 12:55:55;;;;;;;22.65;4.28;;;8.90;99.90;;;;;;5112084;28;20204;-79
2023/01/31 12:58:42;;;;;;;23.25;3.97;;;8.90;99.90;;;;;;5115362;27;20188;-75
2023/01/31 13:01:27;;;;;;;20.33;4.25;;;8.90;99.90;;;;;;5127766;27;20281;-77
2023/01/31 13:04:11;;;;;;;21.88;3.30;;;8.90;99.90;;;;;;5131227;27;20250;-75
2023/01/31 13:06:46;;;;;;;16.45;3.42;;;8.90;99.90;;;;;;5119021;27;20592;-74
2023/01/31 13:09:25;;;;;;;19.10;4.00;;;8.90;99.90;;;;;;5124853;27;20175;-76
2023/01/31 13:12:18;;;;;;;20.35;3.80;;;9.00;99.90;;;;;;5135697;27;20238;-76
2023/01/31 13:15:03;;;;;;;18.25;3.25;;;9.00;99.90;;;;;;5133394;27;20702;-79
2023/01/31 13:17:32;;;;;;;26.23;3.67;;;9.00;99.90;;;;;;5126591;27;20188;-76